Ludell, Kansas
Current Conditions -  °F | °C
As of 10:35 PM on Tuesday 21 Oct 2014 (Local Time) from KCBK Reporting Station
Clear Clear  
Wind Chill: 63°   Ceiling: Unl
Heat Index: 63°   Visibility: 10mi
Dew Point: 52°   Wind: 14mph
Humidity: 68%   Direction: 170°S
Pressure: 29.97"   Gusts: NA
Location:  39.86°N, 100.96°W
Report Text: KCBK 220335Z AUTO 17012KT 10SM CLR 17/11 A2997 RMK AO2
Loading
Personal Weather Stations






























Interactive Weather Map
Tropical Storm Tracking
New forecast layout! Learn more

10-Day Weather Forecast

Advertisements
Track Severe Weather on mobile